Terminal Aerodrome Forecast
Issued by NWS Grand Forks, ND

Home | Current Version | Previous Version | Text Only | Print | Product List | Glossary On
Versions: 1 2 3 4 5 6 7 8 9 10 11 12 13 14 15 16 17
576
FTUS43 KFGF 201734 AAE
TAFGFK
TAF AMD
KGFK 201734Z 2018/2118 30010KT 3SM -RA BR OVC005
     FM210000 28010KT 1SM BR BKN025
     FM210500 24006KT 1/2SM FG SCT020
     FM211300 18008KT 1SM BR BKN025
     FM211400 19009KT 3SM BR SCT035
     FM211700 22010KT P6SM SCT070=

USA.gov is the U.S. government's official web portal to all federal, state and local government web resources and services.